Stella Prima — PHEA — position and weather

sailwx.info

Track history (hours):
 
Tides and Currents Weather Stations Pressure Air Temp Water Temp Dewpoint Dewpoint Depression Visibility Wind Speed Wind Dir Waves Ship Positions

Stella Prima

Last reported at 2014-Nov-04 19:30 UTC. Time now 2014-Nov-24 01:22 UTC.
Position N 49°53' W 003°14'.
Warning: this ship's position is 19 days out of date.

Length 100 m; beam 21 m.

Type: Cargo ship. MMSI: 246460000.

Date/timePositionNaut miles runAvg speedWind from/ knotsBaromVisibWave heightAir tempDewpointWater temp
2014-Nov-04 19:30N 49°53' W 003°14'12111.8
2014-Nov-04 09:14N 50°29' W 000°14'6311.0
2014-Nov-04 03:32N 50°57' E 001°15'1313.5
2014-Nov-04 02:34N 51°06' E 001°30'1312.8
2014-Nov-04 01:33N 51°14' E 001°46'1211.7
2014-Nov-04 00:33N 51°24' E 001°55'1110.5
2014-Nov-03 23:34N 51°33' E 002°05'1010.1
2014-Nov-03 22:33N 51°41' E 002°15'6011.2
2014-Nov-03 17:10N 52°27' E 003°19'6 9.3
2014-Nov-03 16:33N 52°32' E 003°22'70 5.6
2014-Nov-03 04:06N 53°27' E 004°33'4 7.7
2014-Nov-03 03:33N 53°31' E 004°36'34 7.7
2014-Nov-02 23:12N 54°04' E 004°48'6 8.8
2014-Nov-02 22:33N 54°05' E 004°57'6 5.9
2014-Nov-02 21:33N 54°11' E 005°01'6 5.4
2014-Nov-02 20:30N 54°17' E 005°01'6 6.6
2014-Nov-02 19:33N 54°17' E 005°12'6 5.9
2014-Nov-02 18:29N 54°18' E 005°23'6 6.6
2014-Nov-02 17:32N 54°19' E 005°33'6 5.6
2014-Nov-02 16:30N 54°21' E 005°42'24 6.1
2014-Nov-02 12:30N 54°45' E 005°43'6 6.3
2014-Nov-02 11:33N 54°51' E 005°42'6 5.5
2014-Nov-02 10:33N 54°57' E 005°43'6 6.2
2014-Nov-02 09:33N 55°03' E 005°45'7 6.6
2014-Nov-02 08:32N 55°09' E 005°51'7 6.7
2014-Nov-02 07:33N 55°14' E 005°57'8 7.7
2014-Nov-02 06:33N 55°21' E 006°03'8110.9
2014-Nov-01 23:07N 56°31' E 007°17'711.8
2014-Nov-01 22:33N 56°36' E 007°23'1211.9
2014-Nov-01 21:33N 56°47' E 007°33'10211.3
2014-Nov-01 12:31N 57°49' E 010°03'1212.6
2014-Nov-01 11:33N 57°51' E 010°25'1212.2
2014-Nov-01 10:33N 57°48' E 010°47'1313.4
2014-Nov-01 09:33N 57°39' E 011°06'1413.7
2014-Nov-01 08:33N 57°30' E 011°24'1413.6
2014-Nov-01 07:33N 57°18' E 011°36'1414.4
2014-Nov-01 06:33N 57°04' E 011°44'1414.2
2014-Nov-01 05:33N 56°51' E 011°52'1413.9
2014-Nov-01 04:33N 56°37' E 011°58'1413.5
2014-Nov-01 03:33N 56°24' E 012°05'1313.2
2014-Nov-01 02:34N 56°14' E 012°19'1514.6
2014-Nov-01 01:33N 56°04' E 012°38'1313.2
2014-Nov-01 00:33N 55°51' E 012°44'1111.1
2014-Oct-31 23:33N 55°40' E 012°41'9 9.2
2014-Oct-31 22:33N 55°31' E 012°43'1313.3
2014-Oct-31 21:33N 55°18' E 012°40'1413.5
2014-Oct-31 20:31N 55°04' E 012°40'1513.5
2014-Oct-31 19:23N 54°48' E 012°40'1511.9
2014-Oct-31 18:07N 54°37' E 012°23'2232.4
2014-Oct-31 17:27N 54°18' E 012°05'1 1.5
2014-Oct-31 16:33N 54°19' E 012°06'9 9.5
2014-Oct-31 15:33N 54°10' E 012°07'0 0.4
2014-Oct-31 14:31N 54°09' E 012°07'0 0.0
2014-Oct-31 13:17N 54°09' E 012°07'0 0.0
2014-Oct-31 12:13N 54°09' E 012°07'0 0.0
2014-Oct-31 11:25N 54°09' E 012°07'0 0.0
2014-Oct-31 10:19N 54°09' E 012°07'0 0.0
2014-Oct-31 09:28N 54°09' E 012°07'0 0.0
2014-Oct-31 08:31N 54°09' E 012°07'0 0.0
2014-Oct-31 07:04N 54°09' E 012°07'0 0.0
2014-Oct-31 06:31N 54°09' E 012°07'0 0.0
2014-Oct-31 05:31N 54°09' E 012°07'0 0.0
2014-Oct-31 04:28N 54°09' E 012°07'0 0.0
2014-Oct-31 03:28N 54°09' E 012°07'0 0.0
2014-Oct-31 02:13N 54°09' E 012°07'0 0.0
2014-Oct-31 01:19N 54°09' E 012°07'0 0.0
2014-Oct-31 00:28N 54°09' E 012°07'0 0.0
2014-Oct-30 23:32N 54°09' E 012°07'0 0.0
2014-Oct-30 22:31N 54°09' E 012°07'0 0.0
2014-Oct-30 21:16N 54°09' E 012°07'0 0.0
2014-Oct-30 20:28N 54°09' E 012°07'0 0.0
2014-Oct-30 19:31N 54°09' E 012°07'0 0.0
2014-Oct-30 18:31N 54°09' E 012°07'0 0.0
2014-Oct-30 17:13N 54°09' E 012°07'0 0.0
2014-Oct-30 15:22N 54°09' E 012°07'0 0.0
2014-Oct-30 14:25N 54°09' E 012°07'0 0.0
2014-Oct-30 13:22N 54°09' E 012°07'0 0.0
2014-Oct-30 12:31N 54°09' E 012°07'0 0.0
2014-Oct-30 11:28N 54°09' E 012°07'0 0.0
2014-Oct-30 10:31N 54°09' E 012°07'0 0.0
2014-Oct-30 09:04N 54°09' E 012°07'0 0.0
2014-Oct-30 08:25N 54°09' E 012°07'0 0.0
2014-Oct-30 06:07N 54°09' E 012°07'0 0.0
2014-Oct-30 05:31N 54°09' E 012°07'0 0.0
2014-Oct-30 04:28N 54°09' E 012°07'0 0.0
2014-Oct-30 03:31N 54°09' E 012°07'0 0.0
2014-Oct-30 02:31N 54°09' E 012°07'0 0.0
2014-Oct-30 01:31N 54°09' E 012°07'0 0.0
2014-Oct-30 00:28N 54°09' E 012°07'0 0.0
2014-Oct-29 23:25N 54°09' E 012°07'0 0.0
2014-Oct-29 22:22N 54°09' E 012°07'0 0.0
2014-Oct-29 21:28N 54°09' E 012°07'0 0.0
2014-Oct-29 20:28N 54°09' E 012°07'0 0.0
2014-Oct-29 19:31N 54°09' E 012°07'0 0.0
2014-Oct-29 17:28N 54°09' E 012°07'0 0.0
2014-Oct-29 16:28N 54°09' E 012°07'0 0.0
2014-Oct-29 14:28N 54°09' E 012°07'0 0.0
2014-Oct-29 13:28N 54°09' E 012°07'0 0.0
2014-Oct-29 11:28N 54°09' E 012°07'0 0.0
2014-Oct-29 10:31N 54°09' E 012°07'0 0.0
2014-Oct-29 08:16N 54°09' E 012°07'0 0.0
2014-Oct-29 07:28N 54°09' E 012°07'0 0.0
2014-Oct-29 06:31N 54°09' E 012°07'0 0.0
2014-Oct-29 05:22N 54°09' E 012°07'0 0.0
2014-Oct-29 04:28N 54°09' E 012°07'0 0.0
2014-Oct-29 03:31N 54°09' E 012°07'0 0.0
2014-Oct-29 02:31N 54°09' E 012°07'0 0.0
2014-Oct-29 01:28N 54°09' E 012°07'0 0.0
2014-Oct-29 00:31N 54°09' E 012°07'0 0.0
2014-Oct-28 23:31N 54°09' E 012°07'0 0.0
2014-Oct-28 22:28N 54°09' E 012°07'0 0.0
2014-Oct-28 21:25N 54°09' E 012°07'0 0.0
2014-Oct-28 20:31N 54°09' E 012°07'0 0.0
2014-Oct-28 19:26N 54°09' E 012°07'0 0.0
2014-Oct-28 18:28N 54°09' E 012°07'0 0.0
2014-Oct-28 17:25N 54°09' E 012°07'0 0.0
2014-Oct-28 16:25N 54°09' E 012°07'0 0.0
2014-Oct-28 15:10N 54°09' E 012°07'0 0.0
2014-Oct-28 14:28N 54°09' E 012°07'0 0.0
2014-Oct-28 13:31N 54°09' E 012°07'0 0.0
2014-Oct-28 12:28N 54°09' E 012°07'0 0.0
2014-Oct-28 11:28N 54°09' E 012°07'0 0.0
2014-Oct-28 09:28N 54°09' E 012°07'0 0.0
2014-Oct-28 08:28N 54°09' E 012°07'0 0.0
2014-Oct-28 07:28N 54°09' E 012°07'0 0.0
2014-Oct-28 06:28N 54°09' E 012°07'0 0.0
2014-Oct-28 05:29N 54°09' E 012°07'0 0.0
2014-Oct-28 04:28N 54°09' E 012°07'0 0.0
2014-Oct-28 03:31N 54°09' E 012°07'0 0.0
2014-Oct-28 02:28N 54°09' E 012°07'0 0.0
2014-Oct-28 01:28N 54°09' E 012°07'0 0.0
2014-Oct-28 00:16N 54°09' E 012°07'0 0.0
2014-Oct-27 23:31N 54°09' E 012°07'0 0.0
2014-Oct-27 22:25N 54°09' E 012°07'0 0.0
2014-Oct-27 21:31N 54°09' E 012°07'0 0.0
2014-Oct-27 20:31N 54°09' E 012°07'0 0.0
2014-Oct-27 19:31N 54°09' E 012°07'0 0.0
2014-Oct-27 18:31N 54°09' E 012°07'0 0.0
2014-Oct-27 17:28N 54°09' E 012°07'0 0.0
2014-Oct-27 16:28N 54°09' E 012°07'0 0.0
2014-Oct-27 15:31N 54°09' E 012°07'0 0.0
2014-Oct-27 14:28N 54°09' E 012°07'0 0.0
2014-Oct-27 13:28N 54°09' E 012°07'0 0.0
2014-Oct-27 12:19N 54°09' E 012°07'0 0.0
2014-Oct-27 11:28N 54°09' E 012°07'0 0.0
2014-Oct-27 10:28N 54°09' E 012°07'0 0.0
2014-Oct-27 09:28N 54°09' E 012°07'0 0.0
2014-Oct-27 08:28N 54°09' E 012°07'0 0.0
2014-Oct-27 07:22N 54°09' E 012°07'0 0.0
2014-Oct-27 06:32N 54°09' E 012°07'0 0.0
2014-Oct-27 04:13N 54°09' E 012°07'0 0.0
2014-Oct-27 03:31N 54°09' E 012°07'0 0.0
2014-Oct-27 02:22N 54°09' E 012°07'0 0.0
2014-Oct-27 01:16N 54°09' E 012°07'0 0.0
2014-Oct-27 00:28N 54°09' E 012°07'0 0.0
2014-Oct-26 23:22N 54°09' E 012°07'0 0.0
2014-Oct-26 22:28N 54°09' E 012°07'0 0.0
2014-Oct-26 21:31N 54°09' E 012°07'0 0.0
2014-Oct-26 20:31N 54°09' E 012°07'0 0.0
2014-Oct-26 19:28N 54°09' E 012°07'0 0.0
2014-Oct-26 18:31N 54°09' E 012°07'0 0.0
2014-Oct-26 17:28N 54°09' E 012°07'0 0.0
2014-Oct-26 16:31N 54°09' E 012°07'0 0.0
2014-Oct-26 15:31N 54°09' E 012°07'0 0.0
2014-Oct-26 14:31N 54°09' E 012°07'0 0.0
2014-Oct-26 13:19N 54°09' E 012°07'0 0.0
2014-Oct-26 12:31N 54°09' E 012°07'0 0.0
2014-Oct-26 11:31N 54°09' E 012°07'0 0.0
2014-Oct-26 10:28N 54°09' E 012°07'0 0.0
2014-Oct-26 09:22N 54°09' E 012°07'0 0.0
2014-Oct-26 08:28N 54°09' E 012°07'0 0.0
2014-Oct-26 07:16N 54°09' E 012°07'0 0.0
2014-Oct-26 05:28N 54°09' E 012°07'0 0.0
2014-Oct-26 04:22N 54°09' E 012°07'0 0.0
2014-Oct-26 02:28N 54°09' E 012°07'0 0.0
2014-Oct-26 01:31N 54°09' E 012°07'0 0.0
2014-Oct-26 00:28N 54°09' E 012°07'0 0.0
2014-Oct-25 23:28N 54°09' E 012°07'0 0.0
2014-Oct-25 21:25N 54°09' E 012°07'0 0.0
2014-Oct-25 20:28N 54°09' E 012°07'  
Track history (hours):
 
Tides and Currents Weather Stations Pressure Air Temp Water Temp Dewpoint Dewpoint Depression Visibility Wind Speed Wind Dir Waves Ship Positions

Stella Prima

Last reported at 2014-Nov-04 19:30 UTC. Time now 2014-Nov-24 01:22 UTC.
Position N 49°53' W 003°14'.
Warning: this ship's position is 19 days out of date.

Length 100 m; beam 21 m.

Type: Cargo ship. MMSI: 246460000.

Date/timePositionNaut miles runAvg speedWind from/ knotsBaromVisibWave heightAir tempDewpointWater temp
2014-Nov-04 19:30N 49°53' W 003°14'12111.8
2014-Nov-04 09:14N 50°29' W 000°14'6311.0
2014-Nov-04 03:32N 50°57' E 001°15'1313.5
2014-Nov-04 02:34N 51°06' E 001°30'1312.8
2014-Nov-04 01:33N 51°14' E 001°46'1211.7
2014-Nov-04 00:33N 51°24' E 001°55'1110.5
2014-Nov-03 23:34N 51°33' E 002°05'1010.1
2014-Nov-03 22:33N 51°41' E 002°15'6011.2
2014-Nov-03 17:10N 52°27' E 003°19'6 9.3
2014-Nov-03 16:33N 52°32' E 003°22'70 5.6
2014-Nov-03 04:06N 53°27' E 004°33'4 7.7
2014-Nov-03 03:33N 53°31' E 004°36'34 7.7
2014-Nov-02 23:12N 54°04' E 004°48'6 8.8
2014-Nov-02 22:33N 54°05' E 004°57'6 5.9
2014-Nov-02 21:33N 54°11' E 005°01'6 5.4
2014-Nov-02 20:30N 54°17' E 005°01'6 6.6
2014-Nov-02 19:33N 54°17' E 005°12'6 5.9
2014-Nov-02 18:29N 54°18' E 005°23'6 6.6
2014-Nov-02 17:32N 54°19' E 005°33'6 5.6
2014-Nov-02 16:30N 54°21' E 005°42'24 6.1
2014-Nov-02 12:30N 54°45' E 005°43'6 6.3
2014-Nov-02 11:33N 54°51' E 005°42'6 5.5
2014-Nov-02 10:33N 54°57' E 005°43'6 6.2
2014-Nov-02 09:33N 55°03' E 005°45'7 6.6
2014-Nov-02 08:32N 55°09' E 005°51'7 6.7
2014-Nov-02 07:33N 55°14' E 005°57'8 7.7
2014-Nov-02 06:33N 55°21' E 006°03'8110.9
2014-Nov-01 23:07N 56°31' E 007°17'711.8
2014-Nov-01 22:33N 56°36' E 007°23'1211.9
2014-Nov-01 21:33N 56°47' E 007°33'10211.3
2014-Nov-01 12:31N 57°49' E 010°03'1212.6
2014-Nov-01 11:33N 57°51' E 010°25'1212.2
2014-Nov-01 10:33N 57°48' E 010°47'1313.4
2014-Nov-01 09:33N 57°39' E 011°06'1413.7
2014-Nov-01 08:33N 57°30' E 011°24'1413.6
2014-Nov-01 07:33N 57°18' E 011°36'1414.4
2014-Nov-01 06:33N 57°04' E 011°44'1414.2
2014-Nov-01 05:33N 56°51' E 011°52'1413.9
2014-Nov-01 04:33N 56°37' E 011°58'1413.5
2014-Nov-01 03:33N 56°24' E 012°05'1313.2
2014-Nov-01 02:34N 56°14' E 012°19'1514.6
2014-Nov-01 01:33N 56°04' E 012°38'1313.2
2014-Nov-01 00:33N 55°51' E 012°44'1111.1
2014-Oct-31 23:33N 55°40' E 012°41'9 9.2
2014-Oct-31 22:33N 55°31' E 012°43'1313.3
2014-Oct-31 21:33N 55°18' E 012°40'1413.5
2014-Oct-31 20:31N 55°04' E 012°40'1513.5
2014-Oct-31 19:23N 54°48' E 012°40'1511.9
2014-Oct-31 18:07N 54°37' E 012°23'2232.4
2014-Oct-31 17:27N 54°18' E 012°05'1 1.5
2014-Oct-31 16:33N 54°19' E 012°06'9 9.5
2014-Oct-31 15:33N 54°10' E 012°07'0 0.4
2014-Oct-31 14:31N 54°09' E 012°07'0 0.0
2014-Oct-31 13:17N 54°09' E 012°07'0 0.0
2014-Oct-31 12:13N 54°09' E 012°07'0 0.0
2014-Oct-31 11:25N 54°09' E 012°07'0 0.0
2014-Oct-31 10:19N 54°09' E 012°07'0 0.0
2014-Oct-31 09:28N 54°09' E 012°07'0 0.0
2014-Oct-31 08:31N 54°09' E 012°07'0 0.0
2014-Oct-31 07:04N 54°09' E 012°07'0 0.0
2014-Oct-31 06:31N 54°09' E 012°07'0 0.0
2014-Oct-31 05:31N 54°09' E 012°07'0 0.0
2014-Oct-31 04:28N 54°09' E 012°07'0 0.0
2014-Oct-31 03:28N 54°09' E 012°07'0 0.0
2014-Oct-31 02:13N 54°09' E 012°07'0 0.0
2014-Oct-31 01:19N 54°09' E 012°07'0 0.0
2014-Oct-31 00:28N 54°09' E 012°07'0 0.0
2014-Oct-30 23:32N 54°09' E 012°07'0 0.0
2014-Oct-30 22:31N 54°09' E 012°07'0 0.0
2014-Oct-30 21:16N 54°09' E 012°07'0 0.0
2014-Oct-30 20:28N 54°09' E 012°07'0 0.0
2014-Oct-30 19:31N 54°09' E 012°07'0 0.0
2014-Oct-30 18:31N 54°09' E 012°07'0 0.0
2014-Oct-30 17:13N 54°09' E 012°07'0 0.0
2014-Oct-30 15:22N 54°09' E 012°07'0 0.0
2014-Oct-30 14:25N 54°09' E 012°07'0 0.0
2014-Oct-30 13:22N 54°09' E 012°07'0 0.0
2014-Oct-30 12:31N 54°09' E 012°07'0 0.0
2014-Oct-30 11:28N 54°09' E 012°07'0 0.0
2014-Oct-30 10:31N 54°09' E 012°07'0 0.0
2014-Oct-30 09:04N 54°09' E 012°07'0 0.0
2014-Oct-30 08:25N 54°09' E 012°07'0 0.0
2014-Oct-30 06:07N 54°09' E 012°07'0 0.0
2014-Oct-30 05:31N 54°09' E 012°07'0 0.0
2014-Oct-30 04:28N 54°09' E 012°07'0 0.0
2014-Oct-30 03:31N 54°09' E 012°07'0 0.0
2014-Oct-30 02:31N 54°09' E 012°07'0 0.0
2014-Oct-30 01:31N 54°09' E 012°07'0 0.0
2014-Oct-30 00:28N 54°09' E 012°07'0 0.0
2014-Oct-29 23:25N 54°09' E 012°07'0 0.0
2014-Oct-29 22:22N 54°09' E 012°07'0 0.0
2014-Oct-29 21:28N 54°09' E 012°07'0 0.0
2014-Oct-29 20:28N 54°09' E 012°07'0 0.0
2014-Oct-29 19:31N 54°09' E 012°07'0 0.0
2014-Oct-29 17:28N 54°09' E 012°07'0 0.0
2014-Oct-29 16:28N 54°09' E 012°07'0 0.0
2014-Oct-29 14:28N 54°09' E 012°07'0 0.0
2014-Oct-29 13:28N 54°09' E 012°07'0 0.0
2014-Oct-29 11:28N 54°09' E 012°07'0 0.0
2014-Oct-29 10:31N 54°09' E 012°07'0 0.0
2014-Oct-29 08:16N 54°09' E 012°07'0 0.0
2014-Oct-29 07:28N 54°09' E 012°07'0 0.0
2014-Oct-29 06:31N 54°09' E 012°07'0 0.0
2014-Oct-29 05:22N 54°09' E 012°07'0 0.0
2014-Oct-29 04:28N 54°09' E 012°07'0 0.0
2014-Oct-29 03:31N 54°09' E 012°07'0 0.0
2014-Oct-29 02:31N 54°09' E 012°07'0 0.0
2014-Oct-29 01:28N 54°09' E 012°07'0 0.0
2014-Oct-29 00:31N 54°09' E 012°07'0 0.0
2014-Oct-28 23:31N 54°09' E 012°07'0 0.0
2014-Oct-28 22:28N 54°09' E 012°07'0 0.0
2014-Oct-28 21:25N 54°09' E 012°07'0 0.0
2014-Oct-28 20:31N 54°09' E 012°07'0 0.0
2014-Oct-28 19:26N 54°09' E 012°07'0 0.0
2014-Oct-28 18:28N 54°09' E 012°07'0 0.0
2014-Oct-28 17:25N 54°09' E 012°07'0 0.0
2014-Oct-28 16:25N 54°09' E 012°07'0 0.0
2014-Oct-28 15:10N 54°09' E 012°07'0 0.0
2014-Oct-28 14:28N 54°09' E 012°07'0 0.0
2014-Oct-28 13:31N 54°09' E 012°07'0 0.0
2014-Oct-28 12:28N 54°09' E 012°07'0 0.0
2014-Oct-28 11:28N 54°09' E 012°07'0 0.0
2014-Oct-28 09:28N 54°09' E 012°07'0 0.0
2014-Oct-28 08:28N 54°09' E 012°07'0 0.0
2014-Oct-28 07:28N 54°09' E 012°07'0 0.0
2014-Oct-28 06:28N 54°09' E 012°07'0 0.0
2014-Oct-28 05:29N 54°09' E 012°07'0 0.0
2014-Oct-28 04:28N 54°09' E 012°07'0 0.0
2014-Oct-28 03:31N 54°09' E 012°07'0 0.0
2014-Oct-28 02:28N 54°09' E 012°07'0 0.0
2014-Oct-28 01:28N 54°09' E 012°07'0 0.0
2014-Oct-28 00:16N 54°09' E 012°07'0 0.0
2014-Oct-27 23:31N 54°09' E 012°07'0 0.0
2014-Oct-27 22:25N 54°09' E 012°07'0 0.0
2014-Oct-27 21:31N 54°09' E 012°07'0 0.0
2014-Oct-27 20:31N 54°09' E 012°07'0 0.0
2014-Oct-27 19:31N 54°09' E 012°07'0 0.0
2014-Oct-27 18:31N 54°09' E 012°07'0 0.0
2014-Oct-27 17:28N 54°09' E 012°07'0 0.0
2014-Oct-27 16:28N 54°09' E 012°07'0 0.0
2014-Oct-27 15:31N 54°09' E 012°07'0 0.0
2014-Oct-27 14:28N 54°09' E 012°07'0 0.0
2014-Oct-27 13:28N 54°09' E 012°07'0 0.0
2014-Oct-27 12:19N 54°09' E 012°07'0 0.0
2014-Oct-27 11:28N 54°09' E 012°07'0 0.0
2014-Oct-27 10:28N 54°09' E 012°07'0 0.0
2014-Oct-27 09:28N 54°09' E 012°07'0 0.0
2014-Oct-27 08:28N 54°09' E 012°07'0 0.0
2014-Oct-27 07:22N 54°09' E 012°07'0 0.0
2014-Oct-27 06:32N 54°09' E 012°07'0 0.0
2014-Oct-27 04:13N 54°09' E 012°07'0 0.0
2014-Oct-27 03:31N 54°09' E 012°07'0 0.0
2014-Oct-27 02:22N 54°09' E 012°07'0 0.0
2014-Oct-27 01:16N 54°09' E 012°07'0 0.0
2014-Oct-27 00:28N 54°09' E 012°07'0 0.0
2014-Oct-26 23:22N 54°09' E 012°07'0 0.0
2014-Oct-26 22:28N 54°09' E 012°07'0 0.0
2014-Oct-26 21:31N 54°09' E 012°07'0 0.0
2014-Oct-26 20:31N 54°09' E 012°07'0 0.0
2014-Oct-26 19:28N 54°09' E 012°07'0 0.0
2014-Oct-26 18:31N 54°09' E 012°07'0 0.0
2014-Oct-26 17:28N 54°09' E 012°07'0 0.0
2014-Oct-26 16:31N 54°09' E 012°07'0 0.0
2014-Oct-26 15:31N 54°09' E 012°07'0 0.0
2014-Oct-26 14:31N 54°09' E 012°07'0 0.0
2014-Oct-26 13:19N 54°09' E 012°07'0 0.0
2014-Oct-26 12:31N 54°09' E 012°07'0 0.0
2014-Oct-26 11:31N 54°09' E 012°07'0 0.0
2014-Oct-26 10:28N 54°09' E 012°07'0 0.0
2014-Oct-26 09:22N 54°09' E 012°07'0 0.0
2014-Oct-26 08:28N 54°09' E 012°07'0 0.0
2014-Oct-26 07:16N 54°09' E 012°07'0 0.0
2014-Oct-26 05:28N 54°09' E 012°07'0 0.0
2014-Oct-26 04:22N 54°09' E 012°07'0 0.0
2014-Oct-26 02:28N 54°09' E 012°07'0 0.0
2014-Oct-26 01:31N 54°09' E 012°07'0 0.0
2014-Oct-26 00:28N 54°09' E 012°07'0 0.0
2014-Oct-25 23:28N 54°09' E 012°07'0 0.0
2014-Oct-25 21:25N 54°09' E 012°07'0 0.0
2014-Oct-25 20:28N 54°09' E 012°07'  

Dump ship's entire track history